EGSCEGBB

Guest
Details From EGSC - Cambridge
To EGBB - Birmingham
Flight Number -
Tags Generated
Created
Modified
Stats Distance 72 nm / 134 km
Max Altitude 0 ft / 0 m
Waypoints 2
Social Downloads 1
Likes 0
Share VATSIM

Download

Looking for another format? Having issues loading an existing format? Contact us
Advertisement - Login to hide

Notes

Generated

Route

EGSC EGBB

ID Type Via Altitude Latitude Longitude Leg Dist Tot Dist Heading (true) Name
O EGSC APT - 0 ft / 0 m 52.20326˚ 0.16866˚ - 0 nm - -
O EGBB APT - 0 ft / 0 m 52.45113˚ -1.75493˚ 72 nm 72 nm 283° / 281° -

Altitude Profile

Advertisement - Login to hide

EGSC

Details ICAO EGSC (CBG)
Name Cambridge
Region United Kingdom
Timezone Europe/London (UTC+0.0)
Stats Elevation 47 ft / 14 m (AMSL)
Location 52.204476° 0.176450°
Runways 3
Magnetic Variation 0.416° W

METAR

EGSC 171750Z 23013KT 9000 -RA BKN006 08/07 Q1017

Decode

TAF

Not found

Departure Runways

ID Width Length Bearing (true) Bearing (mag) Surface Threshold Offset Overrun Length
05 151 ft / 46 m 6,417 ft / 1,956 m 49.79° 50.21° Asphalt 692 ft / 211 m 0 ft / 0 m
05R 115 ft / 35 m 2,947 ft / 898 m 49.84° 50.26° Grass 0 ft / 0 m 0 ft / 0 m
10 115 ft / 35 m 2,290 ft / 698 m 99.91° 100.33° Grass 0 ft / 0 m 0 ft / 0 m
23 151 ft / 46 m 6,417 ft / 1,956 m 229.81° 230.23° Asphalt 469 ft / 143 m 0 ft / 0 m
23L 115 ft / 35 m 2,947 ft / 898 m 229.85° 230.27° Grass 0 ft / 0 m 0 ft / 0 m
28 115 ft / 35 m 2,290 ft / 698 m 279.91° 280.33° Grass 0 ft / 0 m 0 ft / 0 m

EGBB

Details ICAO EGBB (BHX)
Name Birmingham
Region United Kingdom
Timezone Europe/London (UTC+0.0)
Stats Elevation 327 ft / 100 m (AMSL)
Location 52.455966° -1.750378°
Runways 1
Magnetic Variation 1.139° W

METAR

EGBB 171820Z 26009KT 9999 FEW008 BKN027 10/09 Q1017

Decode

TAF

TAF EGBB 171707Z 1718/1818 25010KT 9999 SCT030 BECMG 1718/1721 31005KT TEMPO 1718/1719 6000 -RADZ BKN007 PROB30 TEMPO 1718/1719 3000 RADZ BR BKN004 TEMPO 1803/1812 8000 BKN008 PROB30 TEMPO 1805/1811 3000 BR BKN004 PROB40 TEMPO 1812/1818 8000 BKN010

Decode

Destination Runways

ID Width Length Bearing (true) Bearing (mag) Surface Threshold Offset Overrun Length
15 151 ft / 46 m 8,477 ft / 2,584 m 145.87° 147.01° Asphalt 925 ft / 282 m 0 ft / 0 m
33 151 ft / 46 m 8,477 ft / 2,584 m 325.89° 327.03° Asphalt 958 ft / 292 m 0 ft / 0 m

Approach Navaids

Runway Type Ident Frequency Range Bearing (true) Bearing (mag) Slope Elevation
15 Localiser IBIR 110.10 MHz 18 nm / 33 km 145.89° 147.03° - 325 ft / 99 m (AMSL)
15 Glidescope IBIR 110.10 MHz 10 nm / 19 km 145.88° 147.02° 3.00° 325 ft / 99 m (AMSL)
15 DME IBIR 110.10 MHz 18 nm / 33 km - - - 349 ft / 106 m (AMSL)
33 Localiser IBM 110.10 MHz 18 nm / 33 km 325.87° 327.00° - 325 ft / 99 m (AMSL)
33 Glidescope IBM 110.10 MHz 10 nm / 19 km 325.88° 327.02° 3.00° 325 ft / 99 m (AMSL)
33 DME IBM 110.10 MHz 18 nm / 33 km - - - 327 ft / 100 m (AMSL)